Time;durP1;ratioP1;P1;durP2;ratioP2;P2;SDS_P1;SDS_P2;PMS_P1;PMS_P2;Temp;Humidity;BMP_temperature;BMP_pressure;BME280_temperature;BME280_humidity;BME280_pressure;Samples;Min_cycle;Max_cycle;Signal;HPM_P1;HPM_P2
2023/07/29 00:01:59;;;;;;;0.28;0.28;;;25.30;62.70;;;25.82;47.27;94571.72;5077250;28;20198;-36
2023/07/29 00:04:26;;;;;;;0.30;0.30;;;25.30;62.70;;;25.82;46.97;94571.72;5075751;28;20203;-36
2023/07/29 00:06:54;;;;;;;0.30;0.30;;;25.30;62.70;;;25.82;47.04;94569.03;5076748;28;20203;-36
2023/07/29 00:09:21;;;;;;;0.40;0.40;;;25.30;62.70;;;25.81;46.88;94573.59;5076513;28;20593;-36
2023/07/29 00:11:48;;;;;;;0.30;0.30;;;25.30;62.80;;;25.81;46.98;94578.19;5076702;28;20245;-36
2023/07/29 00:14:15;;;;;;;0.30;0.30;;;25.30;62.80;;;25.81;46.96;94580.84;5075645;28;20221;-36
2023/07/29 00:16:42;;;;;;;0.40;0.40;;;25.30;62.80;;;25.79;47.06;94573.06;5076996;28;20278;-36
2023/07/29 00:19:10;;;;;;;0.30;0.30;;;25.20;62.70;;;25.79;47.29;94578.44;5076460;28;20269;-36
2023/07/29 00:21:37;;;;;;;0.30;0.30;;;25.30;62.80;;;25.79;46.96;94567.69;5075659;28;20192;-36
2023/07/29 00:24:04;;;;;;;0.20;0.20;;;25.30;62.80;;;25.79;47.09;94572.28;5076611;28;20290;-36
2023/07/29 00:26:31;;;;;;;0.40;0.40;;;25.30;62.80;;;25.78;47.03;94568.81;5075672;28;20201;-36
2023/07/29 00:28:59;;;;;;;0.50;0.50;;;25.30;62.90;;;25.78;47.20;94570.69;5075295;28;20291;-36
2023/07/29 00:31:27;;;;;;;0.38;0.38;;;25.20;62.90;;;25.78;47.10;94568.00;5076811;28;20241;-36
2023/07/29 00:33:55;;;;;;;0.30;0.30;;;25.30;62.90;;;25.77;47.08;94563.72;5076041;28;20208;-36
2023/07/29 00:36:22;;;;;;;0.30;0.30;;;25.30;63.00;;;25.76;47.63;94567.53;5076212;28;20227;-36
2023/07/29 00:38:50;;;;;;;0.30;0.30;;;25.30;63.00;;;25.75;47.37;94566.72;5075384;28;20233;-36
2023/07/29 00:41:18;;;;;;;0.30;0.30;;;25.30;63.00;;;25.74;47.18;94559.75;5075127;28;20209;-36
2023/07/29 00:43:45;;;;;;;0.40;0.40;;;25.20;63.00;;;25.73;47.34;94558.16;5075227;28;20215;-36
2023/07/29 00:46:12;;;;;;;0.40;0.40;;;25.20;62.90;;;25.71;47.22;94550.38;5058257;28;20289;-36
2023/07/29 00:48:40;;;;;;;0.30;0.30;;;25.20;62.80;;;25.69;47.38;94552.56;5058904;28;20229;-36
2023/07/29 00:51:07;;;;;;;0.30;0.30;;;25.20;62.90;;;25.67;47.42;94554.78;5075132;28;20202;-36
2023/07/29 00:53:34;;;;;;;0.40;0.40;;;25.20;63.00;;;25.66;47.18;94547.00;5075062;28;20272;-36
2023/07/29 00:56:02;;;;;;;0.50;0.50;;;25.20;63.30;;;25.67;47.74;94552.09;5074716;28;20537;-36
2023/07/29 00:58:29;;;;;;;0.50;0.50;;;25.20;63.00;;;25.67;47.42;94545.91;5074707;28;20200;-36
2023/07/29 01:00:56;;;;;;;0.30;0.30;;;25.20;63.10;;;25.66;47.51;94553.19;5075631;28;20194;-36
2023/07/29 01:03:23;;;;;;;0.30;0.30;;;25.10;63.00;;;25.66;47.24;94550.50;5074996;28;20205;-36
2023/07/29 01:06:40;;;;;;;0.35;0.35;;;25.20;63.30;;;25.63;47.60;94545.69;5074664;28;20721;-36
2023/07/29 01:09:49;;;;;;;0.30;0.30;;;25.20;63.20;;;25.60;47.58;94550.88;5091298;28;20269;-36
2023/07/29 01:12:49;;;;;;;0.32;0.32;;;25.20;63.10;;;25.59;47.58;94544.72;5075383;28;20260;-36
2023/07/29 01:15:26;;;;;;;0.30;0.30;;;25.20;63.10;;;25.60;47.48;94549.00;5071097;28;20640;-36
2023/07/29 01:18:00;;;;;;;0.30;0.30;;;25.10;63.00;;;25.60;47.46;94542.81;5074367;28;20485;-37
2023/07/29 01:20:32;;;;;;;0.30;0.30;;;25.10;63.10;;;25.61;47.88;94541.72;5075312;28;20194;-36
2023/07/29 01:23:00;;;;;;;0.40;0.40;;;25.10;64.10;;;25.61;47.86;94542.53;5075026;28;20195;-36
2023/07/29 01:25:27;;;;;;;0.50;0.50;;;25.10;63.20;;;25.62;47.70;94540.63;5074324;28;20205;-36
2023/07/29 01:27:55;;;;;;;0.30;0.30;;;25.10;63.20;;;25.61;47.70;94539.84;5075395;28;20512;-37
2023/07/29 01:30:29;;;;;;;0.30;0.30;;;25.10;63.20;;;25.63;47.88;94547.59;5075328;28;20196;-36
2023/07/29 01:33:23;;;;;;;0.30;0.30;;;25.10;63.20;;;25.59;47.79;94535.88;5075266;28;20208;-36
2023/07/29 01:35:57;;;;;;;0.30;0.30;;;25.10;63.20;;;25.59;47.40;94530.50;5074215;28;20214;-39
2023/07/29 01:38:34;;;;;;;0.30;0.30;;;25.10;63.20;;;25.61;47.65;94528.28;5073972;28;20209;-38
2023/07/29 01:41:02;;;;;;;0.50;0.50;;;25.10;63.30;;;25.60;47.63;94522.13;5075211;28;20254;-38
2023/07/29 01:43:32;;;;;;;0.35;0.35;;;25.10;64.20;;;25.61;47.54;94521.03;5074359;28;20203;-38
2023/07/29 01:46:01;;;;;;;0.40;0.40;;;25.10;63.20;;;25.60;47.45;94521.31;5074090;28;20240;-38
2023/07/29 01:48:30;;;;;;;0.30;0.30;;;25.10;63.30;;;25.60;47.80;94518.63;5074698;28;20203;-38
2023/07/29 01:50:58;;;;;;;0.40;0.40;;;25.10;63.30;;;25.61;47.52;94520.22;5080274;28;20646;-38
2023/07/29 01:53:25;;;;;;;0.40;0.40;;;25.10;63.40;;;25.60;47.49;94529.38;5080578;28;20215;-38
2023/07/29 01:55:52;;;;;;;0.50;0.50;;;25.10;64.30;;;25.60;47.77;94530.19;5080533;28;20200;-38
2023/07/29 01:58:20;;;;;;;0.35;0.35;;;25.00;63.30;;;25.59;47.88;94531.28;5081205;28;20285;-39
2023/07/29 02:00:48;;;;;;;0.30;0.30;;;25.10;63.40;;;25.59;47.56;94536.66;5081713;28;20203;-38
2023/07/29 02:03:15;;;;;;;0.30;0.30;;;25.10;63.40;;;25.59;47.49;94536.66;5080460;28;20286;-38
2023/07/29 02:05:43;;;;;;;0.30;0.30;;;25.10;63.40;;;25.57;47.75;94536.16;5080431;28;20308;-38
2023/07/29 02:08:11;;;;;;;0.38;0.38;;;25.10;63.40;;;25.58;48.00;94535.06;5081876;28;20638;-38
2023/07/29 02:10:39;;;;;;;0.30;0.30;;;25.10;63.40;;;25.56;47.84;94535.34;5063908;28;20206;-39
2023/07/29 02:13:06;;;;;;;0.30;0.30;;;25.10;63.40;;;25.56;47.84;94543.41;5080299;28;20315;-38
2023/07/29 02:15:33;;;;;;;0.30;0.30;;;25.10;63.50;;;25.56;47.86;94539.91;5080434;28;20282;-39
2023/07/29 02:18:01;;;;;;;0.30;0.30;;;25.00;63.40;;;25.55;47.88;94546.41;5080308;28;20209;-38
2023/07/29 02:20:29;;;;;;;0.40;0.40;;;25.10;63.50;;;25.54;48.01;94542.13;5081404;28;20627;-39
2023/07/29 02:22:56;;;;;;;0.60;0.60;;;25.00;63.50;;;25.53;47.78;94540.53;5080529;28;20556;-38
2023/07/29 02:25:24;;;;;;;0.45;0.45;;;25.00;63.50;;;25.54;48.07;94536.75;5080242;28;20213;-38
2023/07/29 02:27:51;;;;;;;0.30;0.30;;;25.00;63.50;;;25.53;48.23;94544.00;5081433;28;20199;-38
2023/07/29 02:30:18;;;;;;;0.30;0.30;;;25.00;63.50;;;25.55;47.85;94551.78;5080425;28;20593;-38
2023/07/29 02:32:45;;;;;;;0.40;0.40;;;25.00;63.50;;;25.54;48.07;94548.28;5080074;28;20536;-38
2023/07/29 02:35:13;;;;;;;0.40;0.40;;;25.00;63.60;;;25.53;47.98;94543.22;5080344;28;20192;-38
2023/07/29 02:37:40;;;;;;;0.30;0.30;;;25.00;63.60;;;25.54;48.01;94548.28;5063591;28;20237;-38
2023/07/29 02:40:08;;;;;;;0.50;0.50;;;25.00;63.70;;;25.53;48.31;94546.69;5081052;28;20644;-38
2023/07/29 02:42:35;;;;;;;0.50;0.50;;;25.00;63.60;;;25.54;48.35;94547.50;5080120;28;20206;-39
2023/07/29 02:45:03;;;;;;;0.30;0.30;;;25.00;63.60;;;25.53;48.26;94541.31;5096635;28;20239;-38
2023/07/29 02:47:30;;;;;;;0.30;0.30;;;25.00;63.60;;;25.53;47.99;94532.47;5080337;28;20203;-39
2023/07/29 02:49:58;;;;;;;0.50;0.50;;;25.00;63.70;;;25.53;48.00;94535.94;5080939;28;20199;-39
2023/07/29 02:52:25;;;;;;;0.30;0.30;;;25.00;63.70;;;25.52;48.21;94537.06;5080015;28;20548;-38
2023/07/29 02:54:52;;;;;;;0.40;0.40;;;25.00;63.70;;;25.53;48.54;94541.31;5080733;28;20533;-38
2023/07/29 02:57:20;;;;;;;0.60;0.60;;;25.00;63.80;;;25.53;48.32;94544.00;5079962;28;20651;-39
2023/07/29 02:59:47;;;;;;;0.30;0.30;;;25.00;63.80;;;25.54;48.17;94537.53;5080878;28;20227;-39
2023/07/29 03:02:16;;;;;;;0.30;0.30;;;25.00;63.80;;;25.53;48.38;94543.22;5077259;28;20200;-38
2023/07/29 03:04:43;;;;;;;0.30;0.30;;;25.00;63.80;;;25.53;48.41;94530.56;5076624;28;20630;-39
2023/07/29 03:07:10;;;;;;;0.30;0.30;;;25.00;63.80;;;25.52;48.25;94539.75;5078022;28;20191;-38
2023/07/29 03:09:37;;;;;;;0.30;0.30;;;25.00;64.70;;;25.52;48.55;94530.88;5077656;28;20419;-38
2023/07/29 03:12:05;;;;;;;0.35;0.35;;;25.00;63.80;;;25.52;48.40;94541.63;5076564;28;20219;-38
2023/07/29 03:14:34;;;;;;;0.30;0.30;;;25.10;63.90;;;25.51;48.35;94540.00;5076689;28;20219;-38
2023/07/29 03:17:04;;;;;;;0.40;0.40;;;25.10;63.80;;;25.50;48.17;94536.53;5076505;28;20195;-38
2023/07/29 03:19:32;;;;;;;0.52;0.52;;;25.00;63.90;;;25.50;48.45;94541.09;5077552;28;20256;-38
2023/07/29 03:21:59;;;;;;;0.32;0.32;;;25.00;63.90;;;25.49;48.43;94539.53;5094190;28;20286;-39
2023/07/29 03:24:27;;;;;;;0.50;0.50;;;25.00;63.80;;;25.47;48.50;94541.72;5059895;28;20264;-38
2023/07/29 03:26:54;;;;;;;0.30;0.30;;;25.00;63.80;;;25.46;48.45;94535.53;5076292;28;20256;-39
2023/07/29 03:29:21;;;;;;;0.60;0.60;;;25.00;63.80;;;25.45;48.61;94531.28;5076265;28;20282;-37
2023/07/29 03:31:48;;;;;;;0.60;0.60;;;25.00;63.90;;;25.42;48.45;94532.63;5059881;28;20210;-38
2023/07/29 03:34:16;;;;;;;0.30;0.30;;;25.00;63.90;;;25.41;48.39;94535.63;5059785;28;20655;-38
2023/07/29 03:36:47;;;;;;;0.40;0.40;;;24.90;63.80;;;25.37;48.50;94532.72;5076647;28;20206;-38
2023/07/29 03:39:15;;;;;;;0.50;0.50;;;25.00;63.90;;;25.35;48.33;94531.41;5075796;28;20203;-38
2023/07/29 03:41:42;;;;;;;0.60;0.60;;;24.90;63.80;;;25.34;48.73;94540.53;5076044;28;20199;-38
2023/07/29 03:44:09;;;;;;;0.40;0.40;;;24.90;63.80;;;25.31;48.77;94536.56;5076799;28;20251;-38
2023/07/29 03:46:36;;;;;;;0.57;0.57;;;24.90;63.90;;;25.30;48.55;94537.66;5075991;28;20579;-38
2023/07/29 03:49:06;;;;;;;0.30;0.30;;;24.90;64.70;;;25.28;48.44;94539.03;5075754;28;20646;-38
2023/07/29 03:51:33;;;;;;;0.40;0.40;;;24.90;64.00;;;25.25;48.52;94530.50;5075857;28;20260;-38
2023/07/29 03:54:01;;;;;;;0.50;0.50;;;24.80;63.90;;;25.25;48.50;94532.38;5076702;28;20212;-38
2023/07/29 03:56:28;;;;;;;0.40;0.40;;;24.80;63.90;;;25.24;48.82;94538.81;5076685;28;20194;-38
2023/07/29 03:59:04;;;;;;;0.50;0.50;;;24.80;64.00;;;25.22;48.42;94536.44;5075581;28;20208;-38
2023/07/29 04:01:31;;;;;;;0.40;0.40;;;24.80;64.00;;;25.21;48.64;94529.47;5059198;28;20201;-38
2023/07/29 04:03:59;;;;;;;0.30;0.30;;;24.80;64.00;;;25.20;48.74;94538.63;5075603;28;20258;-38
2023/07/29 04:06:27;;;;;;;0.60;0.60;;;24.80;64.10;;;25.20;48.61;94533.25;5076059;28;20217;-38
2023/07/29 04:08:55;;;;;;;0.40;0.40;;;24.80;64.10;;;25.19;48.91;94537.03;5075366;28;20231;-38
2023/07/29 04:11:23;;;;;;;0.38;0.38;;;24.80;64.20;;;25.20;48.81;94532.47;5075739;28;20216;-38
2023/07/29 04:13:51;;;;;;;0.30;0.30;;;24.80;64.20;;;25.17;49.00;94531.16;5075355;28;20702;-38
2023/07/29 04:16:18;;;;;;;0.30;0.30;;;24.80;64.20;;;25.17;48.77;94528.50;5076309;28;20200;-38
2023/07/29 04:18:46;;;;;;;0.57;0.57;;;24.80;64.20;;;25.16;49.13;94534.94;5058790;28;20197;-38
2023/07/29 04:21:13;;;;;;;0.30;0.30;;;24.70;64.20;;;25.16;48.69;94539.50;5075233;28;20293;-38
2023/07/29 04:23:41;;;;;;;0.50;0.50;;;24.70;64.20;;;25.15;49.24;94535.25;5075188;28;20205;-38
2023/07/29 04:26:08;;;;;;;0.35;0.35;;;24.70;64.20;;;25.15;48.86;94538.72;5075261;28;20630;-38
2023/07/29 04:28:35;;;;;;;0.30;0.30;;;24.70;64.20;;;25.15;48.97;94541.38;5075080;28;20205;-38
2023/07/29 04:31:02;;;;;;;0.32;0.32;;;24.70;64.30;;;25.15;49.18;94532.56;5074925;28;20283;-38
2023/07/29 04:33:33;;;;;;;0.30;0.30;;;24.70;64.30;;;25.17;49.13;94535.72;5076423;28;20578;-38
2023/07/29 04:36:04;;;;;;;0.40;0.40;;;24.70;64.30;;;25.16;49.29;94534.94;5075019;28;20191;-38
2023/07/29 04:38:33;;;;;;;0.30;0.30;;;24.70;64.40;;;25.17;49.14;94539.22;5076102;28;20192;-38
2023/07/29 04:41:01;;;;;;;0.30;0.30;;;24.70;64.40;;;25.17;49.17;94541.09;5075656;28;20193;-38
2023/07/29 04:43:31;;;;;;;0.35;0.35;;;24.70;64.40;;;25.15;49.18;94544.06;5075075;28;20300;-38
2023/07/29 04:45:59;;;;;;;0.50;0.50;;;24.70;64.30;;;25.14;48.95;94547.84;5091765;28;20707;-38
2023/07/29 04:48:27;;;;;;;0.40;0.40;;;24.70;64.30;;;25.13;48.97;94553.50;5074733;28;20198;-38
2023/07/29 04:50:54;;;;;;;0.50;0.50;;;24.70;64.30;;;25.12;48.94;94552.72;5074636;28;20630;-38
2023/07/29 04:53:21;;;;;;;0.30;0.30;;;24.70;64.30;;;25.10;48.96;94555.69;5075469;28;20191;-38
2023/07/29 04:55:48;;;;;;;0.30;0.30;;;24.70;64.40;;;25.10;49.27;94561.06;5058130;28;20198;-38
2023/07/29 04:58:15;;;;;;;0.30;0.30;;;24.70;64.40;;;25.09;49.19;94561.34;5074497;28;20196;-38
2023/07/29 05:00:43;;;;;;;0.30;0.30;;;24.70;64.40;;;25.08;49.40;94565.94;5074293;28;20207;-38
2023/07/29 05:03:11;;;;;;;0.30;0.30;;;24.70;64.40;;;25.07;49.32;94564.34;5074697;28;20246;-38
2023/07/29 05:05:38;;;;;;;0.30;0.30;;;24.70;64.40;;;25.07;49.44;94575.06;5074393;28;20247;-38
2023/07/29 05:08:05;;;;;;;0.30;0.30;;;24.70;64.50;;;25.06;49.17;94578.03;5074685;28;20199;-38
2023/07/29 05:10:32;;;;;;;0.30;0.30;;;24.70;64.40;;;25.05;49.38;94573.78;5075461;28;20210;-38
2023/07/29 05:12:59;;;;;;;0.35;0.35;;;24.70;64.50;;;25.05;49.06;94584.50;5074484;28;20214;-38
2023/07/29 05:15:26;;;;;;;0.40;0.40;;;24.60;64.40;;;25.02;49.17;94583.16;5074541;28;20248;-38
2023/07/29 05:17:53;;;;;;;0.60;0.60;;;24.60;64.40;;;25.03;49.23;94576.72;5075465;28;20286;-38
2023/07/29 05:20:21;;;;;;;0.30;0.30;;;24.60;64.40;;;25.03;49.43;94589.34;5057518;28;20206;-38
2023/07/29 05:22:48;;;;;;;0.30;0.30;;;24.60;64.50;;;25.02;49.16;94591.22;5075286;28;20286;-38
2023/07/29 05:25:15;;;;;;;0.38;0.38;;;24.60;64.40;;;25.02;49.45;94590.44;5074601;28;20195;-38
2023/07/29 05:27:42;;;;;;;0.30;0.30;;;24.60;64.60;;;25.01;49.22;94589.66;5074841;28;20544;-37
2023/07/29 05:30:11;;;;;;;0.40;0.40;;;24.60;64.60;;;25.00;49.30;94584.56;5074876;28;20210;-39
2023/07/29 05:32:38;;;;;;;0.40;0.40;;;24.60;64.60;;;25.01;49.69;94591.53;5074254;28;20197;-37
2023/07/29 05:35:06;;;;;;;0.50;0.50;;;24.60;64.60;;;25.00;49.47;94592.59;5074309;28;20231;-36
2023/07/29 05:37:33;;;;;;;0.40;0.40;;;24.60;64.60;;;25.00;49.51;94592.59;5075183;28;20191;-39
2023/07/29 05:40:00;;;;;;;0.38;0.38;;;24.60;64.60;;;25.00;49.49;94597.97;5074030;28;20263;-36
2023/07/29 05:42:28;;;;;;;0.38;0.38;;;24.60;64.70;;;24.98;49.29;94590.22;5057931;28;20212;-39
2023/07/29 05:44:56;;;;;;;0.40;0.40;;;24.60;64.60;;;24.96;49.64;94587.03;5074246;28;20244;-36
2023/07/29 05:47:23;;;;;;;0.40;0.40;;;24.60;64.60;;;24.96;49.40;94587.03;5057721;28;20209;-39
2023/07/29 05:49:51;;;;;;;0.30;0.30;;;24.60;64.60;;;24.96;49.36;94586.25;5074039;28;20213;-38
2023/07/29 05:52:18;;;;;;;0.32;0.32;;;24.60;64.70;;;24.98;49.46;94594.81;5074146;28;20201;-36
2023/07/29 05:54:45;;;;;;;0.40;0.40;;;24.60;64.70;;;24.98;49.76;94597.47;5073827;28;20215;-38
2023/07/29 05:57:13;;;;;;;0.40;0.40;;;24.60;64.80;;;24.97;49.86;94595.88;5074235;28;20292;-39
2023/07/29 05:59:40;;;;;;;0.60;0.60;;;24.60;64.70;;;24.94;49.65;94590.00;5075103;28;20211;-39
2023/07/29 06:02:07;;;;;;;0.50;0.50;;;24.60;64.70;;;24.95;49.72;94585.47;5073803;28;20202;-38
2023/07/29 06:04:35;;;;;;;0.30;0.30;;;24.60;64.80;;;24.96;49.83;94597.75;5074388;28;20217;-37
2023/07/29 06:07:04;;;;;;;0.30;0.30;;;24.60;64.70;;;24.96;49.61;94591.59;5074798;28;20203;-41
2023/07/29 06:09:31;;;;;;;0.30;0.30;;;24.60;64.80;;;24.97;49.95;94587.84;5074696;28;20588;-39
2023/07/29 06:11:58;;;;;;;0.40;0.40;;;24.60;64.80;;;24.96;49.80;94586.25;5073831;28;20337;-38
2023/07/29 06:14:26;;;;;;;0.30;0.30;;;24.50;64.80;;;24.94;49.62;94584.63;5073604;28;20635;-38
2023/07/29 06:16:53;;;;;;;0.40;0.40;;;24.60;64.80;;;24.94;49.68;94587.31;5075181;28;20194;-39
2023/07/29 06:19:21;;;;;;;0.40;0.40;;;24.60;64.80;;;24.93;49.92;94588.41;5073705;28;20531;-40
2023/07/29 06:21:48;;;;;;;0.30;0.30;;;24.60;64.80;;;24.94;49.69;94592.69;5074467;28;20281;-40
2023/07/29 06:24:15;;;;;;;0.57;0.57;;;24.60;64.80;;;24.90;50.11;94586.31;5057179;28;20221;-40
2023/07/29 06:26:43;;;;;;;0.50;0.50;;;24.60;64.80;;;24.92;49.56;94594.84;5073734;28;20216;-36
2023/07/29 06:29:10;;;;;;;0.30;0.30;;;24.50;64.80;;;24.93;49.73;94596.44;5074749;28;20236;-38
2023/07/29 06:31:37;;;;;;;0.40;0.40;;;24.60;64.90;;;24.93;49.99;94587.63;5074295;28;20271;-38
2023/07/29 06:34:04;;;;;;;0.30;0.30;;;24.60;64.90;;;24.93;49.94;94585.72;5073804;28;20209;-42
2023/07/29 06:36:31;;;;;;;0.32;0.32;;;24.50;64.90;;;24.92;49.89;94588.69;5075947;28;20221;-39
2023/07/29 06:38:58;;;;;;;0.50;0.50;;;24.60;65.00;;;24.92;50.04;94588.69;5077615;28;20281;-38
2023/07/29 06:41:26;;;;;;;0.40;0.40;;;24.60;64.90;;;24.89;49.80;94578.53;5078164;28;20193;-36
2023/07/29 06:43:53;;;;;;;0.40;0.40;;;24.60;64.80;;;24.90;50.07;94582.81;5078192;28;20201;-38
2023/07/29 06:46:20;;;;;;;0.30;0.30;;;24.50;64.80;;;24.90;49.88;94586.31;5077495;28;20581;-36
2023/07/29 06:48:47;;;;;;;0.60;0.60;;;24.50;64.80;;;24.89;50.16;94575.84;5078047;28;20209;-39
2023/07/29 06:51:14;;;;;;;0.40;0.40;;;24.50;64.80;;;24.90;49.90;94578.28;5078096;28;20391;-37
2023/07/29 06:53:42;;;;;;;0.30;0.30;;;24.50;64.80;;;24.92;50.36;94581.44;5077644;28;20204;-40
2023/07/29 06:56:09;;;;;;;0.40;0.40;;;24.50;64.80;;;24.91;49.91;94577.19;5077778;28;20426;-38
2023/07/29 06:58:36;;;;;;;0.60;0.60;;;24.60;64.90;;;24.93;50.17;94574.22;5077199;28;20276;-38
2023/07/29 07:01:04;;;;;;;0.30;0.30;;;24.60;64.80;;;24.91;49.63;94569.13;5078141;28;20538;-39
2023/07/29 07:03:31;;;;;;;0.30;0.30;;;24.60;64.70;;;24.93;49.67;94577.69;5077917;28;20192;-38
2023/07/29 07:05:59;;;;;;;0.30;0.30;;;24.60;64.70;;;24.96;49.63;94580.88;5078015;28;20239;-36
2023/07/29 07:08:26;;;;;;;0.30;0.30;;;24.60;65.70;;;24.98;49.97;94584.06;5077788;28;20198;-39
2023/07/29 07:10:53;;;;;;;0.30;0.30;;;24.60;64.80;;;25.00;49.57;94579.19;5077473;28;20209;-36
2023/07/29 07:13:21;;;;;;;0.30;0.30;;;24.50;64.80;;;25.01;49.84;94586.97;5077657;28;20277;-38
2023/07/29 07:15:48;;;;;;;0.40;0.40;;;24.60;64.80;;;25.02;49.57;94588.53;5077046;28;20250;-36
2023/07/29 07:18:15;;;;;;;0.30;0.30;;;24.60;64.90;;;25.05;49.72;94595.22;5076904;28;20212;-36
2023/07/29 07:20:42;;;;;;;0.50;0.50;;;24.60;64.70;;;25.06;49.62;94594.13;5077392;28;20233;-39
2023/07/29 07:23:11;;;;;;;0.50;0.50;;;24.70;64.70;;;25.06;49.70;94594.13;5077160;28;20197;-36
2023/07/29 07:25:39;;;;;;;0.40;0.40;;;24.70;64.60;;;25.07;49.67;94595.72;5077481;28;20645;-38
2023/07/29 07:28:06;;;;;;;0.47;0.47;;;24.70;64.60;;;25.08;49.74;94584.72;5077694;28;20277;-37
2023/07/29 07:30:33;;;;;;;0.30;0.30;;;24.70;64.70;;;25.12;49.81;94592.97;5076499;28;20273;-39
2023/07/29 07:33:01;;;;;;;0.30;0.30;;;24.70;64.80;;;25.14;49.59;94593.47;5076144;28;20732;-39
2023/07/29 07:35:28;;;;;;;0.40;0.40;;;24.70;64.70;;;25.16;49.45;94587.81;5077555;28;20236;-36
2023/07/29 07:37:55;;;;;;;0.50;0.50;;;24.80;64.70;;;25.18;49.48;94574.91;5077951;28;20565;-37
2023/07/29 07:40:22;;;;;;;0.50;0.50;;;24.80;64.70;;;25.22;49.56;94575.94;5077261;28;20196;-40
2023/07/29 07:42:50;;;;;;;0.50;0.50;;;24.80;64.80;;;25.23;49.37;94572.13;5076277;28;20197;-37
2023/07/29 07:45:17;;;;;;;0.40;0.40;;;24.80;64.70;;;25.25;49.28;94572.63;5076707;28;20309;-37
2023/07/29 07:47:45;;;;;;;0.30;0.30;;;24.80;64.70;;;25.28;49.63;94560.50;5076852;28;20207;-38
2023/07/29 07:50:14;;;;;;;0.40;0.40;;;24.90;64.70;;;25.29;49.87;94549.47;5076767;28;20211;-39
2023/07/29 07:52:41;;;;;;;0.30;0.30;;;24.90;64.70;;;25.32;49.73;94554.28;5076717;28;20220;-38
2023/07/29 07:55:08;;;;;;;0.40;0.40;;;24.90;64.80;;;25.36;49.78;94551.78;5077744;28;20230;-39
2023/07/29 07:57:36;;;;;;;0.45;0.45;;;24.90;64.60;;;25.36;49.57;94541.84;5077249;28;20540;-38
2023/07/29 08:00:04;;;;;;;0.28;0.28;;;24.90;64.60;;;25.40;49.22;94548.25;5077167;28;20191;-39
2023/07/29 08:02:38;;;;;;;0.30;0.30;;;25.00;64.60;;;25.40;49.08;94545.56;5076509;28;20182;-39
2023/07/29 08:05:06;;;;;;;0.38;0.38;;;24.90;64.30;;;25.42;49.47;94540.69;5075939;28;20221;-39
2023/07/29 08:07:33;;;;;;;0.30;0.30;;;25.00;64.40;;;25.45;49.10;94531.28;5076226;28;20531;-39
2023/07/29 08:10:01;;;;;;;0.30;0.30;;;25.00;64.40;;;25.48;49.01;94529.88;5076728;28;20291;-39
2023/07/29 08:12:28;;;;;;;0.40;0.40;;;25.00;64.40;;;25.51;49.10;94530.09;5075432;28;20638;-39
2023/07/29 08:14:55;;;;;;;0.40;0.40;;;25.00;64.40;;;25.54;48.93;94534.06;5077210;28;20542;-39
2023/07/29 08:17:22;;;;;;;0.30;0.30;;;25.10;64.30;;;25.55;48.97;94530.28;5076079;28;20595;-39
2023/07/29 08:19:49;;;;;;;0.30;0.30;;;25.10;64.30;;;25.58;49.33;94516.25;5074947;28;20202;-38
2023/07/29 08:22:17;;;;;;;0.32;0.32;;;25.10;64.30;;;25.61;49.03;94525.59;5076029;28;20190;-39
2023/07/29 08:24:44;;;;;;;0.40;0.40;;;25.10;64.30;;;25.64;48.96;94523.13;5076382;28;20205;-39
2023/07/29 08:27:11;;;;;;;0.38;0.38;;;25.20;64.30;;;25.67;49.27;94521.72;5076170;28;20198;-39
2023/07/29 08:29:39;;;;;;;0.40;0.40;;;25.20;64.30;;;25.69;48.96;94517.66;5075174;28;20234;-39
2023/07/29 08:32:06;;;;;;;0.30;0.30;;;25.20;64.30;;;25.71;49.09;94510.09;5076080;28;20199;-39
2023/07/29 08:34:33;;;;;;;0.40;0.40;;;25.30;64.20;;;25.73;49.06;94510.59;5076119;28;20208;-39
2023/07/29 08:37:01;;;;;;;0.32;0.32;;;25.30;64.00;;;25.75;48.64;94498.78;5076201;28;20194;-39
2023/07/29 08:39:28;;;;;;;0.40;0.40;;;25.30;63.80;;;25.78;48.41;94504.34;5076177;28;20199;-39
2023/07/29 08:42:04;;;;;;;0.50;0.50;;;25.30;63.80;;;25.80;48.56;94504.03;5074399;28;20221;-40
2023/07/29 08:44:44;;;;;;;0.30;0.30;;;25.40;63.80;;;25.80;48.55;94510.19;5075285;28;20237;-40
2023/07/29 08:47:15;;;;;;;0.52;0.52;;;25.40;63.70;;;25.84;48.30;94505.03;5075612;28;20199;-40
2023/07/29 08:49:43;;;;;;;0.40;0.40;;;25.40;63.70;;;25.86;48.39;94509.00;5075728;28;20184;-39
2023/07/29 08:52:12;;;;;;;0.30;0.30;;;25.40;63.60;;;25.90;48.02;94509.19;5074851;28;20252;-39
2023/07/29 08:54:39;;;;;;;0.40;0.40;;;25.40;63.60;;;25.92;48.44;94508.94;5074934;28;20195;-39
2023/07/29 08:57:06;;;;;;;0.30;0.30;;;25.50;63.90;;;25.94;48.17;94512.09;5075515;28;20528;-40
2023/07/29 08:59:34;;;;;;;0.30;0.30;;;25.50;63.60;;;25.95;47.70;94506.44;5074679;28;20190;-39
2023/07/29 09:02:01;;;;;;;0.40;0.40;;;25.50;63.40;;;25.98;47.94;94508.50;5075412;28;20306;-39
2023/07/29 09:04:28;;;;;;;0.40;0.40;;;25.50;63.20;;;26.01;47.92;94507.94;5075383;28;20521;-39
2023/07/29 09:06:58;;;;;;;0.35;0.35;;;25.60;63.10;;;26.05;47.71;94505.44;5075383;28;20650;-39
2023/07/29 09:09:25;;;;;;;0.40;0.40;;;25.60;63.10;;;26.08;47.84;94499.47;5075819;28;20193;-39
2023/07/29 09:11:53;;;;;;;0.30;0.30;;;25.60;63.10;;;26.11;47.45;94496.19;5073908;28;20544;-39
2023/07/29 09:14:20;;;;;;;0.40;0.40;;;25.60;63.00;;;26.15;47.26;94502.56;5074909;28;20235;-39
2023/07/29 09:16:48;;;;;;;0.30;0.30;;;25.60;63.00;;;26.17;47.18;94502.25;5075187;28;20245;-39
2023/07/29 09:19:15;;;;;;;0.40;0.40;;;25.70;62.80;;;26.20;47.41;94499.75;5075217;28;20615;-39
2023/07/29 09:21:42;;;;;;;0.30;0.30;;;25.70;62.60;;;26.22;47.03;94507.53;5075259;28;20571;-40
2023/07/29 09:24:10;;;;;;;0.40;0.40;;;25.80;62.60;;;26.27;47.08;94493.97;5075152;28;20195;-40
2023/07/29 09:26:37;;;;;;;0.30;0.30;;;25.80;62.60;;;26.31;46.56;94496.88;5075382;28;20226;-39
2023/07/29 09:29:05;;;;;;;0.25;0.25;;;25.80;62.50;;;26.34;46.81;94486.31;5075112;28;20540;-39
2023/07/29 09:31:32;;;;;;;0.30;0.30;;;25.90;62.60;;;26.38;46.05;94497.25;5075344;28;20593;-40
2023/07/29 09:34:03;;;;;;;0.30;0.30;;;25.90;62.20;;;26.42;46.12;94494.75;5074517;28;20199;-40
2023/07/29 09:36:33;;;;;;;0.40;0.40;;;25.90;62.10;;;26.44;45.85;94496.03;5074985;28;20209;-40
2023/07/29 09:39:01;;;;;;;0.30;0.30;;;26.00;62.10;;;26.49;45.96;94495.91;5075056;28;20268;-40
2023/07/29 09:41:32;;;;;;;0.30;0.30;;;26.00;61.90;;;26.52;46.27;94491.81;5057797;28;20189;-41
2023/07/29 09:44:02;;;;;;;0.30;0.30;;;26.00;61.90;;;26.56;46.38;94489.31;5075287;28;20185;-40
2023/07/29 09:46:37;;;;;;;0.20;0.20;;;26.10;62.10;;;26.59;45.71;94488.72;5074977;28;20215;-41
2023/07/29 09:49:07;;;;;;;0.30;0.30;;;26.10;62.00;;;26.63;46.36;94497.75;5074839;28;20193;-41
2023/07/29 09:51:39;;;;;;;0.30;0.30;;;26.10;61.90;;;26.68;45.91;94489.56;5075413;28;20197;-42
2023/07/29 09:54:07;;;;;;;0.30;0.30;;;26.20;61.90;;;26.71;45.73;94488.16;5074481;28;20251;-41
2023/07/29 09:56:42;;;;;;;0.30;0.30;;;26.20;61.80;;;26.74;45.84;94496.41;5074744;28;20227;-40
2023/07/29 09:59:11;;;;;;;0.30;0.30;;;26.20;61.70;;;26.80;46.10;94495.22;5074855;28;20639;-41
2023/07/29 10:01:39;;;;;;;0.30;0.30;;;26.30;61.80;;;26.87;45.62;94502.06;5074613;28;20190;-40
2023/07/29 10:04:09;;;;;;;0.30;0.30;;;26.30;61.70;;;26.89;45.51;94495.31;5073852;28;20643;-40
2023/07/29 10:06:42;;;;;;;0.30;0.30;;;26.40;61.80;;;26.93;45.30;94504.34;5075126;28;20196;-41
2023/07/29 10:09:11;;;;;;;0.40;0.40;;;26.40;61.70;;;26.89;45.25;94484.56;5074442;28;20254;-40
2023/07/29 10:11:40;;;;;;;0.30;0.30;;;26.50;61.60;;;26.98;45.46;94493.47;5076720;28;20559;-41
2023/07/29 10:14:08;;;;;;;0.30;0.30;;;26.50;61.50;;;27.00;45.17;94498.53;5078029;28;20197;-40
2023/07/29 10:16:41;;;;;;;0.30;0.30;;;26.50;61.50;;;27.01;45.64;94494.75;5078740;28;20269;-41
2023/07/29 10:19:10;;;;;;;0.30;0.30;;;26.60;61.40;;;27.04;44.94;94488.75;5078388;28;20264;-41
2023/07/29 10:21:39;;;;;;;0.30;0.30;;;26.60;61.30;;;27.06;45.21;94481.19;5077654;28;20186;-39
2023/07/29 10:24:16;;;;;;;0.30;0.30;;;26.60;61.30;;;27.09;45.21;94480.56;5078457;28;20193;-39
2023/07/29 10:26:47;;;;;;;0.30;0.30;;;26.60;61.20;;;27.12;45.28;94481.84;5077876;28;20197;-39